Portada
METAR-TAF:

METAR-TAF

Aeroports :

Katherine, Austràlia

latitud: 14-26S, longitud: 132-16E, altitud: 108 m

Observació

L'informe es va fer fa 26 minuts, a les 11:00 UTC
Vent 8 kt del Est
Temperatura 29°C
Humitat 15%
Pressió 1014 hPa
Visibilitat 10 km o més

METAR: YPTN 181100Z AUTO 09008KT 9999 // NCD 29/M00 Q1014

Hora: 20:56 (11:26 UTC)

Pronòstic

L'informe es va fer fa 6 hores i 5 minuts, a les 05:21 UTC
Pronòstic vàlid del 18 a les 06 UTC al 19 a les 06 UTC
Vent 12 kt del Est
Visibilitat 10 km o més
sense núvols per sota de 1500 mi sense presència de cumulonimbus.
A partir de les 18 a les 1400 UTC
Vent 6 kt del Est
Visibilitat 10 km o més
sense núvols per sota de 1500 mi sense presència de cumulonimbus.
A partir de les 18 a les 2300 UTC
Vent 14 kt del Est
Visibilitat 10 km o més
sense núvols per sota de 1500 mi sense presència de cumulonimbus.

TAF: YPTN 180521Z 1806/1906 10012KT CAVOK FM181400 10006KT CAVOK FM182300 10014KT CAVOK

Observacions i pronòstics meteorològics de més de 4000 aeroports (METAR i TAF).

Les estacions disponibles són els punts grocs i vermells al mapa.

Posi el ratolí al punt desitjat per veure el nom de l'estació.

Feu clic per veure les observacions i els pronòstics meteorològics.

Per canviar el mapa: feu clic els botons verds amb una creu de color negre per apropar; al botó verd amb un guió per allunyar la imatge; o en les fletxes verdes per a mapes adjacents.


METAR-TAF: